Time;durP1;ratioP1;P1;durP2;ratioP2;P2;SDS_P1;SDS_P2;PMS_P1;PMS_P2;Temp;Humidity;BMP_temperature;BMP_pressure;BME280_temperature;BME280_humidity;BME280_pressure;Samples;Min_cycle;Max_cycle;Signal;HPM_P1;HPM_P2
2022/04/13 00:01:09;;;;;;;19.15;14.98;;;12.70;77.40;;;;;;5076173;28;20072;-79
2022/04/13 00:03:35;;;;;;;21.60;15.25;;;12.60;77.40;;;;;;5076276;28;20047;-80
2022/04/13 00:06:00;;;;;;;26.35;17.58;;;12.60;77.40;;;;;;5059556;28;20036;-79
2022/04/13 00:08:26;;;;;;;23.50;16.75;;;12.60;77.50;;;;;;5076374;28;20089;-80
2022/04/13 00:10:51;;;;;;;22.95;16.67;;;12.50;77.40;;;;;;5076072;28;20062;-80
2022/04/13 00:13:17;;;;;;;23.63;17.35;;;12.50;77.50;;;;;;5092910;28;20373;-79
2022/04/13 00:15:43;;;;;;;29.33;18.33;;;12.50;77.60;;;;;;5075768;28;20079;-79
2022/04/13 00:18:09;;;;;;;23.45;17.23;;;12.40;77.60;;;;;;5059298;28;20036;-79
2022/04/13 00:20:36;;;;;;;23.60;16.90;;;12.40;77.70;;;;;;5075945;28;20084;-79
2022/04/13 00:23:02;;;;;;;27.83;18.00;;;12.30;77.80;;;;;;5093001;28;20040;-79
2022/04/13 00:25:30;;;;;;;24.35;17.40;;;12.30;77.90;;;;;;5092616;28;20055;-79
2022/04/13 00:27:56;;;;;;;25.67;17.73;;;12.30;78.20;;;;;;5076450;28;20036;-79
2022/04/13 00:30:22;;;;;;;27.77;18.58;;;12.20;78.40;;;;;;5092542;28;20407;-79
2022/04/13 00:32:48;;;;;;;22.42;17.80;;;12.10;78.40;;;;;;5074859;28;20076;-80
2022/04/13 00:35:13;;;;;;;22.90;17.27;;;12.10;78.90;;;;;;5059274;28;20043;-79
2022/04/13 00:37:39;;;;;;;25.50;18.70;;;12.00;78.60;;;;;;5059027;28;20569;-79
2022/04/13 00:40:07;;;;;;;23.83;18.25;;;12.00;78.80;;;;;;5075624;28;20036;-80
2022/04/13 00:42:32;;;;;;;24.20;18.45;;;12.00;79.00;;;;;;5075437;28;20040;-79
2022/04/13 00:44:58;;;;;;;21.23;16.48;;;11.90;79.20;;;;;;5075483;28;20044;-80
2022/04/13 00:47:25;;;;;;;23.52;18.30;;;11.90;79.30;;;;;;5092268;28;20044;-79
2022/04/13 00:49:50;;;;;;;25.25;17.88;;;11.90;80.30;;;;;;5075575;28;20040;-79
2022/04/13 00:52:19;;;;;;;22.00;16.92;;;11.80;80.70;;;;;;5075373;28;20043;-80
2022/04/13 00:54:48;;;;;;;23.73;17.45;;;11.80;80.10;;;;;;5075261;28;20032;-80
2022/04/13 00:57:16;;;;;;;23.27;18.40;;;11.70;81.30;;;;;;5092171;28;20173;-80
2022/04/13 00:59:44;;;;;;;22.80;17.58;;;11.70;80.40;;;;;;5092264;28;20422;-79
2022/04/13 01:02:12;;;;;;;24.67;18.30;;;11.70;81.50;;;;;;5092101;28;20079;-79
2022/04/13 01:04:38;;;;;;;26.58;18.48;;;11.70;81.30;;;;;;5092042;28;20046;-79
2022/04/13 01:07:09;;;;;;;26.92;19.83;;;11.70;81.20;;;;;;5058446;28;20087;-79
2022/04/13 01:09:36;;;;;;;24.52;18.15;;;11.70;81.60;;;;;;5091885;28;20047;-79
2022/04/13 01:12:03;;;;;;;27.30;18.73;;;11.70;80.80;;;;;;5092025;28;20044;-79
2022/04/13 01:14:29;;;;;;;29.80;19.08;;;11.80;80.70;;;;;;5074984;28;20063;-79
2022/04/13 01:16:55;;;;;;;25.45;18.83;;;11.80;80.90;;;;;;5075458;28;20565;-79
2022/04/13 01:19:21;;;;;;;28.23;18.95;;;11.80;81.90;;;;;;5075000;28;20036;-80
2022/04/13 01:21:53;;;;;;;26.77;19.17;;;11.80;81.00;;;;;;5091740;28;20047;-79
2022/04/13 01:24:21;;;;;;;22.70;17.45;;;11.80;81.00;;;;;;5075076;28;20126;-80
2022/04/13 01:26:47;;;;;;;23.77;19.77;;;11.80;81.00;;;;;;5091694;28;20036;-79
2022/04/13 01:29:13;;;;;;;27.13;19.98;;;11.80;80.90;;;;;;5091697;28;20074;-80
2022/04/13 01:31:46;;;;;;;29.88;19.52;;;11.80;80.90;;;;;;5091654;28;20040;-80
2022/04/13 01:34:13;;;;;;;26.75;19.67;;;11.90;81.00;;;;;;5091783;28;20125;-79
2022/04/13 01:36:38;;;;;;;27.20;20.17;;;11.90;81.00;;;;;;5091866;28;20492;-79
2022/04/13 01:39:05;;;;;;;29.90;19.55;;;11.80;80.80;;;;;;5075150;28;20067;-79
2022/04/13 01:41:32;;;;;;;29.85;19.63;;;11.90;81.00;;;;;;5074780;28;20039;-79
2022/04/13 01:43:58;;;;;;;26.00;19.60;;;11.90;80.90;;;;;;5076312;28;20097;-79
2022/04/13 01:46:27;;;;;;;33.67;21.52;;;11.90;81.00;;;;;;5095972;28;20392;-79
2022/04/13 01:48:52;;;;;;;30.00;20.67;;;11.80;81.00;;;;;;5062290;28;20044;-79
2022/04/13 01:51:20;;;;;;;31.38;20.45;;;11.90;81.10;;;;;;5078594;28;20396;-79
2022/04/13 01:53:50;;;;;;;28.50;19.45;;;11.90;81.10;;;;;;5095878;28;20462;-79
2022/04/13 01:56:17;;;;;;;28.85;21.33;;;12.00;81.30;;;;;;5095970;28;20388;-79
2022/04/13 01:58:43;;;;;;;28.42;20.75;;;11.90;81.10;;;;;;5095666;28;20036;-79
2022/04/13 02:01:09;;;;;;;28.95;19.30;;;12.00;81.30;;;;;;5078548;28;20127;-79
2022/04/13 02:03:35;;;;;;;27.13;20.98;;;11.90;81.30;;;;;;5095718;28;20075;-80
2022/04/13 02:06:00;;;;;;;32.42;21.38;;;11.90;81.50;;;;;;5095418;28;20078;-79
2022/04/13 02:08:26;;;;;;;26.25;19.52;;;11.90;81.60;;;;;;5078530;28;20072;-80
2022/04/13 02:10:52;;;;;;;28.35;20.48;;;12.00;81.70;;;;;;5095015;28;20054;-79
2022/04/13 02:13:22;;;;;;;28.67;21.45;;;11.90;81.50;;;;;;5078619;28;20123;-80
2022/04/13 02:15:48;;;;;;;26.17;20.65;;;11.90;81.80;;;;;;5094855;28;20091;-79
2022/04/13 02:18:15;;;;;;;33.65;21.00;;;11.80;82.00;;;;;;5095101;28;20036;-80
2022/04/13 02:20:40;;;;;;;34.40;21.55;;;11.80;81.90;;;;;;5095277;28;20101;-79
2022/04/13 02:23:06;;;;;;;30.10;21.20;;;11.80;82.40;;;;;;5078529;28;20442;-80
2022/04/13 02:25:35;;;;;;;29.52;21.45;;;11.70;82.20;;;;;;5078339;28;20537;-79
2022/04/13 02:28:02;;;;;;;27.90;21.52;;;11.70;82.60;;;;;;5095270;28;20043;-79
2022/04/13 02:30:28;;;;;;;31.60;22.50;;;11.60;82.80;;;;;;5078100;28;20404;-79
2022/04/13 02:32:53;;;;;;;31.13;21.00;;;11.60;82.40;;;;;;5094814;28;20044;-79
2022/04/13 02:35:19;;;;;;;31.08;23.02;;;11.60;83.00;;;;;;5061383;28;20040;-79
2022/04/13 02:37:45;;;;;;;32.42;23.35;;;11.60;82.90;;;;;;5077933;28;20043;-80
2022/04/13 02:40:12;;;;;;;28.23;20.33;;;11.50;83.40;;;;;;5094672;28;20152;-80
2022/04/13 02:42:38;;;;;;;30.70;21.52;;;11.50;83.50;;;;;;5078043;28;20093;-79
2022/04/13 02:45:04;;;;;;;32.33;21.42;;;11.50;83.60;;;;;;5094531;28;20047;-79
2022/04/13 02:47:35;;;;;;;31.15;21.52;;;11.50;83.50;;;;;;5094600;28;20051;-80
2022/04/13 02:50:01;;;;;;;33.08;21.98;;;11.40;83.40;;;;;;5061383;28;20048;-79
2022/04/13 02:52:30;;;;;;;30.27;22.05;;;11.40;84.20;;;;;;5094481;28;20373;-80
2022/04/13 02:54:56;;;;;;;29.48;22.67;;;11.40;83.50;;;;;;5093696;28;20036;-80
2022/04/13 02:57:22;;;;;;;30.35;22.35;;;11.30;83.90;;;;;;5077446;28;20051;-79
2022/04/13 02:59:49;;;;;;;32.92;22.75;;;11.30;83.80;;;;;;5077596;28;20039;-79
2022/04/13 03:02:15;;;;;;;29.33;22.80;;;11.30;83.40;;;;;;5077689;28;20107;-79
2022/04/13 03:04:46;;;;;;;32.65;22.80;;;11.20;84.10;;;;;;5077393;28;20039;-80
2022/04/13 03:07:14;;;;;;;29.70;23.23;;;11.20;85.10;;;;;;5061445;28;20089;-80
2022/04/13 03:09:40;;;;;;;34.08;22.83;;;11.20;84.90;;;;;;5094141;28;20122;-80
2022/04/13 03:12:06;;;;;;;33.53;22.92;;;11.10;84.90;;;;;;5093992;28;20166;-80
2022/04/13 03:14:33;;;;;;;30.95;23.23;;;11.10;84.70;;;;;;5097174;28;20109;-80
2022/04/13 03:16:58;;;;;;;35.33;23.88;;;11.10;84.70;;;;;;5080558;28;20036;-79
2022/04/13 03:19:24;;;;;;;29.83;22.65;;;11.10;84.30;;;;;;5097196;28;20047;-80
2022/04/13 03:21:51;;;;;;;35.95;22.73;;;11.00;85.30;;;;;;5080442;28;20043;-79
2022/04/13 03:24:22;;;;;;;30.60;21.75;;;11.10;85.30;;;;;;5097546;28;20519;-79
2022/04/13 03:26:48;;;;;;;38.92;22.40;;;11.00;85.10;;;;;;5097198;28;20050;-80
2022/04/13 03:29:14;;;;;;;31.38;23.30;;;11.00;85.20;;;;;;5080372;28;20040;-79
2022/04/13 03:31:39;;;;;;;27.90;21.95;;;11.00;85.40;;;;;;5080035;28;20471;-79
2022/04/13 03:34:05;;;;;;;29.95;22.80;;;11.00;85.60;;;;;;5097047;28;20031;-80
2022/04/13 03:36:32;;;;;;;30.95;22.38;;;11.00;86.00;;;;;;5080141;28;20464;-79
2022/04/13 03:38:57;;;;;;;34.08;22.65;;;11.00;85.60;;;;;;5080274;28;20048;-79
2022/04/13 03:41:23;;;;;;;30.35;21.98;;;11.00;85.00;;;;;;5096655;28;20047;-79
2022/04/13 03:43:49;;;;;;;31.70;21.98;;;11.00;84.90;;;;;;5080296;28;20039;-79
2022/04/13 03:46:15;;;;;;;32.83;22.70;;;11.00;84.80;;;;;;5096832;28;20035;-79
2022/04/13 03:48:41;;;;;;;33.60;23.52;;;11.00;85.40;;;;;;5096667;28;20334;-80
2022/04/13 03:51:12;;;;;;;29.83;22.27;;;11.00;85.30;;;;;;5096868;28;20043;-79
2022/04/13 03:53:38;;;;;;;30.10;22.02;;;11.00;85.20;;;;;;5079840;28;20043;-79
2022/04/13 03:56:04;;;;;;;33.35;22.65;;;11.00;84.80;;;;;;5096844;28;20040;-79
2022/04/13 03:58:30;;;;;;;31.98;22.23;;;11.00;86.10;;;;;;5096561;28;20078;-79
2022/04/13 04:00:55;;;;;;;30.60;23.20;;;11.00;85.50;;;;;;5079578;28;20046;-79
2022/04/13 04:03:21;;;;;;;33.95;22.45;;;11.00;85.40;;;;;;5096541;28;20082;-80
2022/04/13 04:05:46;;;;;;;30.13;20.70;;;11.00;85.70;;;;;;5096486;28;20036;-80
2022/04/13 04:08:12;;;;;;;28.65;21.52;;;10.90;85.80;;;;;;5079420;28;20039;-80
2022/04/13 04:10:38;;;;;;;26.70;20.40;;;11.00;85.80;;;;;;5079273;28;20040;-80
2022/04/13 04:13:03;;;;;;;30.00;21.20;;;11.00;86.70;;;;;;5096257;28;20092;-80
2022/04/13 04:15:29;;;;;;;32.58;21.65;;;11.00;86.50;;;;;;5062468;28;20097;-80
2022/04/13 04:17:55;;;;;;;26.25;19.38;;;11.00;86.30;;;;;;5096189;28;20124;-79
2022/04/13 04:20:20;;;;;;;34.50;22.30;;;11.00;86.30;;;;;;5079278;28;20036;-79
2022/04/13 04:22:46;;;;;;;31.52;23.60;;;11.00;86.40;;;;;;5095869;28;20047;-79
2022/04/13 04:25:12;;;;;;;32.75;22.73;;;11.00;85.70;;;;;;5079160;28;20127;-80
2022/04/13 04:27:37;;;;;;;28.88;21.33;;;11.00;86.20;;;;;;5079264;28;20044;-80
2022/04/13 04:30:04;;;;;;;29.77;20.88;;;11.00;86.80;;;;;;5078885;28;20040;-79
2022/04/13 04:32:29;;;;;;;28.75;21.77;;;11.00;86.50;;;;;;5079221;28;20372;-80
2022/04/13 04:34:55;;;;;;;27.73;21.38;;;11.00;86.80;;;;;;5096163;28;20039;-79
2022/04/13 04:37:21;;;;;;;30.58;22.13;;;11.00;86.40;;;;;;5079089;28;20479;-80
2022/04/13 04:39:47;;;;;;;29.58;22.33;;;11.00;87.00;;;;;;5096086;28;20035;-80
2022/04/13 04:42:12;;;;;;;35.85;23.23;;;11.00;86.90;;;;;;5095987;28;20043;-80
2022/04/13 04:44:38;;;;;;;33.65;23.58;;;11.00;87.20;;;;;;5095813;28;20083;-79
2022/04/13 04:47:04;;;;;;;28.90;22.30;;;10.90;86.80;;;;;;5062092;28;20095;-79
2022/04/13 04:49:29;;;;;;;33.83;23.52;;;10.90;87.40;;;;;;5078645;28;20118;-79
2022/04/13 04:51:55;;;;;;;35.03;23.58;;;10.90;87.90;;;;;;5062084;28;20040;-82
2022/04/13 04:54:21;;;;;;;32.88;24.33;;;11.00;88.30;;;;;;5095047;28;20043;-81
2022/04/13 04:56:47;;;;;;;29.70;22.77;;;10.90;87.60;;;;;;5078408;28;20426;-81
2022/04/13 04:59:15;;;;;;;36.30;25.15;;;10.90;87.40;;;;;;5078671;28;20036;-79
2022/04/13 05:01:41;;;;;;;34.40;26.35;;;10.90;88.70;;;;;;5079167;28;20050;-80
2022/04/13 05:04:07;;;;;;;35.58;25.75;;;10.90;87.60;;;;;;5095421;28;20503;-80
2022/04/13 05:06:33;;;;;;;34.63;25.30;;;10.90;88.00;;;;;;5095417;28;20560;-79
2022/04/13 05:08:59;;;;;;;29.58;22.38;;;10.80;87.60;;;;;;5095587;28;20047;-80
2022/04/13 05:11:24;;;;;;;33.90;24.85;;;10.90;88.90;;;;;;5095430;28;20047;-79
2022/04/13 05:13:50;;;;;;;37.58;25.75;;;10.80;88.30;;;;;;5078720;28;20040;-79
2022/04/13 05:16:17;;;;;;;35.55;24.98;;;10.90;89.00;;;;;;5078434;28;20055;-79
2022/04/13 05:18:45;;;;;;;32.70;22.15;;;10.90;89.20;;;;;;5095226;28;20079;-80
2022/04/13 05:21:11;;;;;;;36.58;26.48;;;10.80;88.80;;;;;;5078294;28;20043;-79
2022/04/13 05:23:37;;;;;;;37.63;26.98;;;10.90;89.70;;;;;;5095126;28;20046;-80
2022/04/13 05:26:04;;;;;;;37.90;27.45;;;10.90;89.10;;;;;;5078566;28;20043;-80
2022/04/13 05:28:30;;;;;;;37.45;26.13;;;10.90;88.20;;;;;;5095308;28;20048;-80
2022/04/13 05:30:56;;;;;;;36.97;26.80;;;10.90;88.70;;;;;;5095021;28;20544;-79
2022/04/13 05:33:22;;;;;;;39.17;26.15;;;10.90;87.90;;;;;;5095069;28;20500;-80
2022/04/13 05:35:48;;;;;;;32.50;25.08;;;11.00;88.00;;;;;;5095315;28;20484;-80
2022/04/13 05:38:14;;;;;;;39.47;25.35;;;11.00;88.10;;;;;;5061382;28;20046;-80
2022/04/13 05:40:39;;;;;;;34.30;24.50;;;11.00;88.60;;;;;;5078160;28;20043;-80
2022/04/13 05:43:05;;;;;;;38.08;26.70;;;11.00;88.70;;;;;;5078242;28;20046;-80
2022/04/13 05:45:31;;;;;;;42.10;25.05;;;11.00;88.80;;;;;;5094914;28;20047;-80
2022/04/13 05:47:57;;;;;;;38.00;25.02;;;11.00;89.80;;;;;;5061484;28;20036;-79
2022/04/13 05:50:23;;;;;;;37.80;25.85;;;11.00;90.20;;;;;;5094935;28;20039;-80
2022/04/13 05:52:49;;;;;;;37.00;24.13;;;11.00;90.20;;;;;;5094749;28;20043;-81
2022/04/13 05:55:15;;;;;;;35.85;24.95;;;11.10;89.40;;;;;;5095190;28;20170;-79
2022/04/13 05:57:41;;;;;;;38.70;26.75;;;11.10;89.80;;;;;;5078076;28;20130;-79
2022/04/13 06:00:12;;;;;;;36.92;25.95;;;11.10;89.80;;;;;;5095029;28;20438;-79
2022/04/13 06:02:39;;;;;;;38.65;25.20;;;11.20;89.20;;;;;;5095066;28;20150;-79
2022/04/13 06:05:06;;;;;;;33.85;23.63;;;11.30;89.10;;;;;;5061513;28;20122;-79
2022/04/13 06:07:32;;;;;;;32.47;23.92;;;11.30;89.20;;;;;;5061143;28;20483;-80
2022/04/13 06:10:02;;;;;;;39.10;25.00;;;11.40;89.10;;;;;;5061240;28;20043;-79
2022/04/13 06:12:29;;;;;;;36.05;24.23;;;11.40;89.80;;;;;;5094844;28;20051;-80
2022/04/13 06:15:07;;;;;;;36.92;24.60;;;11.40;89.40;;;;;;5077731;28;20051;-79
2022/04/13 06:17:34;;;;;;;36.88;23.35;;;11.40;89.40;;;;;;5094736;28;20036;-80
2022/04/13 06:19:59;;;;;;;34.47;23.33;;;11.40;90.30;;;;;;5094471;28;20067;-79
2022/04/13 06:22:25;;;;;;;42.53;26.30;;;11.40;90.10;;;;;;5077915;28;20077;-80
2022/04/13 06:24:51;;;;;;;31.63;24.55;;;11.50;89.90;;;;;;5077578;28;20044;-79
2022/04/13 06:27:20;;;;;;;36.25;23.40;;;11.50;90.00;;;;;;5077924;28;20039;-80
2022/04/13 06:29:46;;;;;;;35.85;25.80;;;11.50;89.60;;;;;;5094525;28;20043;-80
2022/04/13 06:32:15;;;;;;;32.63;23.40;;;11.50;90.20;;;;;;5097816;28;20127;-80
2022/04/13 06:34:41;;;;;;;32.70;22.88;;;11.50;90.00;;;;;;5064800;28;20032;-79
2022/04/13 06:37:07;;;;;;;34.47;23.10;;;11.50;90.20;;;;;;5098424;28;20499;-79
2022/04/13 06:39:32;;;;;;;34.40;23.52;;;11.60;90.00;;;;;;5081696;27;20506;-80
2022/04/13 06:41:58;;;;;;;33.85;24.38;;;11.60;89.90;;;;;;5107123;27;20651;-80
2022/04/13 06:44:24;;;;;;;32.80;24.20;;;11.60;90.00;;;;;;5100449;27;20138;-80
2022/04/13 06:46:50;;;;;;;33.38;22.50;;;11.70;89.70;;;;;;5082853;27;20040;-80
2022/04/13 06:49:15;;;;;;;32.35;23.50;;;11.70;89.90;;;;;;5095559;27;20412;-80
2022/04/13 06:51:41;;;;;;;34.50;24.20;;;11.70;89.90;;;;;;5075843;27;20060;-79
2022/04/13 06:54:07;;;;;;;33.75;23.42;;;11.80;90.00;;;;;;5096731;27;20294;-81
2022/04/13 06:56:32;;;;;;;31.10;21.08;;;11.80;90.00;;;;;;5096459;27;20046;-79
2022/04/13 06:58:59;;;;;;;29.73;22.77;;;12.00;90.20;;;;;;5098034;27;20474;-80
2022/04/13 07:01:25;;;;;;;32.88;21.30;;;12.00;90.90;;;;;;5088360;27;20045;-79
2022/04/13 07:03:50;;;;;;;29.17;22.38;;;12.00;90.00;;;;;;5059198;27;20141;-80
2022/04/13 07:06:16;;;;;;;31.27;21.33;;;12.10;90.20;;;;;;5083512;27;20039;-79
2022/04/13 07:08:42;;;;;;;30.23;19.55;;;12.20;89.80;;;;;;5080704;27;20475;-80
2022/04/13 07:11:08;;;;;;;29.63;20.75;;;12.20;89.80;;;;;;5100835;27;20044;-80
2022/04/13 07:13:33;;;;;;;26.77;18.10;;;12.30;89.90;;;;;;5085071;27;20109;-79
2022/04/13 07:15:59;;;;;;;30.33;19.13;;;12.30;89.70;;;;;;5084133;27;20202;-79
2022/04/13 07:18:25;;;;;;;27.35;19.10;;;12.50;89.80;;;;;;5088377;27;20047;-80
2022/04/13 07:20:51;;;;;;;27.80;18.38;;;12.50;89.70;;;;;;5102661;27;20061;-80
2022/04/13 07:23:17;;;;;;;26.55;17.70;;;12.70;89.40;;;;;;5098128;27;20098;-79
2022/04/13 07:25:42;;;;;;;22.70;15.15;;;12.80;89.40;;;;;;5101984;28;20101;-79
2022/04/13 07:28:08;;;;;;;23.38;15.93;;;12.90;88.60;;;;;;5083629;27;20134;-79
2022/04/13 07:30:34;;;;;;;24.00;15.20;;;13.00;87.90;;;;;;5085745;27;20488;-79
2022/04/13 07:33:01;;;;;;;23.50;16.45;;;13.10;87.90;;;;;;5081926;27;20039;-79
2022/04/13 07:35:29;;;;;;;23.23;14.00;;;13.10;87.30;;;;;;5100024;27;20073;-79
2022/04/13 07:37:55;;;;;;;21.55;15.63;;;13.30;87.30;;;;;;5100071;27;20422;-80
2022/04/13 07:40:21;;;;;;;27.02;16.98;;;13.50;86.60;;;;;;5067399;27;20059;-79
2022/04/13 07:42:47;;;;;;;23.27;14.60;;;13.50;86.30;;;;;;5085649;28;20074;-79
2022/04/13 07:45:12;;;;;;;19.95;13.13;;;13.70;85.80;;;;;;5099508;27;20107;-80
2022/04/13 07:47:38;;;;;;;20.85;14.32;;;13.80;85.40;;;;;;5101035;27;20506;-79
2022/04/13 07:50:06;;;;;;;20.33;14.50;;;13.90;85.50;;;;;;5082964;27;20048;-79
2022/04/13 07:52:34;;;;;;;20.40;14.70;;;14.00;85.30;;;;;;5103293;27;20082;-80
2022/04/13 07:55:00;;;;;;;17.85;13.55;;;14.10;84.90;;;;;;5101156;27;20534;-80
2022/04/13 07:57:25;;;;;;;19.63;13.27;;;14.30;84.50;;;;;;5063615;27;20074;-79
2022/04/13 07:59:51;;;;;;;22.55;12.65;;;14.40;84.30;;;;;;5065528;27;20038;-80
2022/04/13 08:02:20;;;;;;;20.10;14.43;;;14.50;83.90;;;;;;5082365;27;20047;-79
2022/04/13 08:04:47;;;;;;;17.60;13.13;;;14.60;83.50;;;;;;5115629;27;20050;-79
2022/04/13 08:07:13;;;;;;;21.15;13.55;;;14.60;82.60;;;;;;5081658;27;20475;-79
2022/04/13 08:09:39;;;;;;;20.40;13.30;;;14.60;82.90;;;;;;5080065;27;20043;-79
2022/04/13 08:12:05;;;;;;;22.98;12.65;;;14.70;82.60;;;;;;5083565;27;20130;-79
2022/04/13 08:14:31;;;;;;;22.73;13.25;;;14.70;82.40;;;;;;5098533;27;20938;-79
2022/04/13 08:16:57;;;;;;;22.73;14.02;;;14.50;82.30;;;;;;5099879;27;20063;-79
2022/04/13 08:19:23;;;;;;;22.83;14.18;;;14.40;82.50;;;;;;5096024;27;20039;-78
2022/04/13 08:21:49;;;;;;;21.33;14.80;;;14.30;82.70;;;;;;5094315;27;20043;-79
2022/04/13 08:24:18;;;;;;;27.25;17.20;;;14.30;83.00;;;;;;5084328;27;20137;-81
2022/04/13 08:26:44;;;;;;;22.15;14.75;;;14.20;83.10;;;;;;5101069;27;20148;-79
2022/04/13 08:29:10;;;;;;;18.75;13.02;;;14.20;83.10;;;;;;5097115;27;20043;-80
2022/04/13 08:31:37;;;;;;;21.00;14.00;;;14.30;83.20;;;;;;5081884;27;20407;-79
2022/04/13 08:34:02;;;;;;;22.48;13.70;;;14.50;83.40;;;;;;5099266;27;20368;-79
2022/04/13 08:36:28;;;;;;;19.90;14.48;;;14.60;82.70;;;;;;5099579;27;20089;-79
2022/04/13 08:38:54;;;;;;;23.65;13.60;;;14.60;82.60;;;;;;5076855;27;20038;-80
2022/04/13 08:41:40;;;;;;;24.67;14.70;;;14.60;82.60;;;;;;5067289;27;20407;-79
2022/04/13 08:44:30;;;;;;;19.60;12.63;;;14.80;82.50;;;;;;5084614;27;20126;-80
2022/04/13 08:47:02;;;;;;;16.80;11.98;;;15.00;82.10;;;;;;5098649;27;20387;-79
2022/04/13 08:49:29;;;;;;;19.02;13.60;;;15.00;80.80;;;;;;5101481;27;20093;-80
2022/04/13 08:51:58;;;;;;;19.77;12.55;;;15.10;80.80;;;;;;5097841;27;20042;-80
2022/04/13 08:54:30;;;;;;;18.48;12.77;;;15.10;80.60;;;;;;5095370;27;20062;-80
2022/04/13 08:56:57;;;;;;;19.13;11.52;;;15.20;80.50;;;;;;5100585;27;20031;-80
2022/04/13 08:59:29;;;;;;;19.02;12.43;;;15.30;80.50;;;;;;5100165;27;20069;-80
2022/04/13 09:02:14;;;;;;;22.80;13.73;;;15.30;79.60;;;;;;5099884;27;20043;-80
2022/04/13 09:04:43;;;;;;;16.92;11.73;;;15.30;79.90;;;;;;5083113;27;20479;-80
2022/04/13 09:07:13;;;;;;;18.63;11.70;;;15.40;79.60;;;;;;5079802;27;20449;-80
2022/04/13 09:09:45;;;;;;;18.70;12.13;;;15.50;79.20;;;;;;5095437;28;20047;-80
2022/04/13 09:12:14;;;;;;;16.88;11.80;;;15.50;79.30;;;;;;5102830;27;20680;-80
2022/04/13 09:14:40;;;;;;;18.08;11.85;;;15.70;78.50;;;;;;5097858;28;20047;-80
2022/04/13 09:17:07;;;;;;;17.23;12.57;;;15.70;78.40;;;;;;5099011;28;20047;-80
2022/04/13 09:19:33;;;;;;;20.25;12.48;;;15.80;78.60;;;;;;5081973;28;20162;-80
2022/04/13 09:21:59;;;;;;;18.80;11.65;;;16.00;78.20;;;;;;5083933;28;20513;-80
2022/04/13 09:24:28;;;;;;;18.42;11.18;;;16.00;77.40;;;;;;5098502;28;20043;-80
2022/04/13 09:26:54;;;;;;;16.98;10.57;;;16.10;77.00;;;;;;5096990;28;20459;-80
2022/04/13 09:29:20;;;;;;;16.85;11.75;;;16.20;77.40;;;;;;5098380;28;20058;-80
2022/04/13 09:31:46;;;;;;;20.35;10.85;;;16.20;76.70;;;;;;5084781;28;20043;-81
2022/04/13 09:34:12;;;;;;;18.10;10.63;;;16.20;76.40;;;;;;5103357;28;20496;-80
2022/04/13 09:36:38;;;;;;;23.70;13.63;;;16.30;76.00;;;;;;5101809;28;20054;-80
2022/04/13 09:39:03;;;;;;;19.20;11.65;;;16.40;76.50;;;;;;5080539;28;20044;-80
2022/04/13 09:41:38;;;;;;;21.27;10.75;;;16.40;76.30;;;;;;5098787;28;20057;-80
2022/04/13 09:44:14;;;;;;;25.25;10.82;;;16.20;74.90;;;;;;5098591;28;20997;-81
2022/04/13 09:46:41;;;;;;;18.67;10.90;;;16.20;75.70;;;;;;5101876;28;20499;-81
2022/04/13 09:49:18;;;;;;;19.67;10.27;;;16.20;76.50;;;;;;5096687;28;20054;-81
2022/04/13 09:51:49;;;;;;;20.02;11.00;;;16.20;76.60;;;;;;5082384;28;20101;-81
2022/04/13 09:54:15;;;;;;;14.50;9.02;;;16.30;75.50;;;;;;5116573;28;20042;-80
2022/04/13 09:56:49;;;;;;;14.48;9.07;;;16.20;75.20;;;;;;5080327;28;20589;-80
2022/04/13 09:59:28;;;;;;;15.85;9.43;;;16.30;75.50;;;;;;5095962;28;20151;-80
2022/04/13 10:01:55;;;;;;;20.02;11.80;;;16.30;75.10;;;;;;5097346;28;20495;-81
2022/04/13 10:04:28;;;;;;;18.83;9.30;;;16.20;75.80;;;;;;5081335;27;20099;-81
2022/04/13 10:06:54;;;;;;;16.25;9.30;;;16.20;76.20;;;;;;5070121;27;20115;-80
2022/04/13 10:09:22;;;;;;;15.93;9.45;;;16.40;75.80;;;;;;5084404;27;20184;-80
2022/04/13 10:12:01;;;;;;;14.38;9.60;;;16.40;75.80;;;;;;5082797;27;20043;-79
2022/04/13 10:14:26;;;;;;;28.67;12.73;;;16.30;75.80;;;;;;5099216;27;20596;-80
2022/04/13 10:16:55;;;;;;;15.68;9.15;;;16.20;76.10;;;;;;5085326;27;20063;-80
2022/04/13 10:19:21;;;;;;;19.35;9.27;;;16.30;76.20;;;;;;5081784;27;20032;-80
2022/04/13 10:21:49;;;;;;;15.95;8.80;;;16.30;76.10;;;;;;5080906;27;20043;-80
2022/04/13 10:24:21;;;;;;;15.57;8.30;;;16.40;75.90;;;;;;5082234;27;20050;-80
2022/04/13 10:27:02;;;;;;;21.23;9.15;;;16.50;75.50;;;;;;5090497;27;20454;-80
2022/04/13 10:29:29;;;;;;;13.82;7.85;;;16.40;75.10;;;;;;5100253;27;20124;-80
2022/04/13 10:32:11;;;;;;;16.83;10.32;;;16.20;75.70;;;;;;5100418;27;20052;-80
2022/04/13 10:34:38;;;;;;;13.13;8.68;;;16.20;76.00;;;;;;5097734;27;20509;-80
2022/04/13 10:37:08;;;;;;;19.55;9.13;;;16.30;75.70;;;;;;5100838;27;20461;-81
2022/04/13 10:39:35;;;;;;;12.70;6.93;;;16.20;75.90;;;;;;5097606;27;20122;-80
2022/04/13 10:42:03;;;;;;;21.88;8.02;;;16.20;75.50;;;;;;5101681;27;20429;-80
2022/04/13 10:44:33;;;;;;;11.25;5.88;;;16.20;75.00;;;;;;5102176;27;20062;-80
2022/04/13 10:47:07;;;;;;;13.60;6.97;;;16.10;75.30;;;;;;5103935;27;20498;-80
2022/04/13 10:49:40;;;;;;;14.02;7.88;;;16.20;75.10;;;;;;5083611;27;20054;-80
2022/04/13 10:52:15;;;;;;;12.73;7.53;;;16.10;75.10;;;;;;5082807;27;20043;-80
2022/04/13 10:54:46;;;;;;;17.25;7.75;;;16.10;75.60;;;;;;5101665;27;20050;-79
2022/04/13 10:57:12;;;;;;;17.52;9.23;;;16.00;75.70;;;;;;5097423;27;20048;-80
2022/04/13 10:59:50;;;;;;;14.32;8.40;;;16.00;75.60;;;;;;5074922;27;20505;-80
2022/04/13 11:02:48;;;;;;;14.70;9.32;;;16.10;76.20;;;;;;5084728;27;20046;-79
2022/04/13 11:05:14;;;;;;;14.25;7.93;;;16.00;76.50;;;;;;5099317;27;20101;-79
2022/04/13 11:07:40;;;;;;;14.32;7.20;;;16.00;76.40;;;;;;5082866;27;20079;-80
2022/04/13 11:10:14;;;;;;;20.30;8.85;;;16.00;76.80;;;;;;5102861;27;20111;-79
2022/04/13 11:12:40;;;;;;;16.40;9.85;;;15.90;76.80;;;;;;5098811;27;20394;-80
2022/04/13 11:15:07;;;;;;;19.75;11.18;;;15.90;76.80;;;;;;5101180;27;20515;-79
2022/04/13 11:17:43;;;;;;;16.27;8.77;;;15.70;77.30;;;;;;5095320;27;20495;-78
2022/04/13 11:20:22;;;;;;;18.00;9.30;;;15.70;77.50;;;;;;5097702;27;20043;-79
2022/04/13 11:23:14;;;;;;;19.65;10.48;;;15.70;77.60;;;;;;5102565;27;20135;-79
2022/04/13 11:25:53;;;;;;;19.17;9.57;;;15.60;78.00;;;;;;5101975;27;20576;-79
2022/04/13 11:28:30;;;;;;;17.90;9.65;;;15.50;78.00;;;;;;5066628;27;20044;-79
2022/04/13 11:31:04;;;;;;;18.92;9.98;;;15.50;78.40;;;;;;5080657;27;20043;-79
2022/04/13 11:33:44;;;;;;;17.90;10.10;;;15.40;78.40;;;;;;5100218;27;20035;-78
2022/04/13 11:36:10;;;;;;;17.75;9.85;;;15.40;79.00;;;;;;5110961;27;20043;-79
2022/04/13 11:38:36;;;;;;;16.48;9.50;;;15.30;79.10;;;;;;5093325;27;20075;-81
2022/04/13 11:41:07;;;;;;;16.73;10.48;;;15.30;79.00;;;;;;5084379;28;20546;-81
2022/04/13 11:43:33;;;;;;;20.77;11.90;;;15.20;79.20;;;;;;5096899;27;20439;-81
2022/04/13 11:46:00;;;;;;;17.40;10.77;;;15.10;79.70;;;;;;5085369;27;20071;-81
2022/04/13 11:48:33;;;;;;;16.35;10.30;;;15.00;79.40;;;;;;5102033;27;20550;-81
2022/04/13 11:51:27;;;;;;;22.13;9.82;;;14.90;79.60;;;;;;5101968;27;20501;-81
2022/04/13 11:53:54;;;;;;;17.63;10.50;;;14.90;79.70;;;;;;5103077;27;20380;-81
2022/04/13 11:56:39;;;;;;;16.35;9.20;;;14.80;80.60;;;;;;5115308;27;20046;-81
2022/04/13 11:59:06;;;;;;;18.48;10.25;;;14.80;80.40;;;;;;5101216;27;20075;-82
2022/04/13 12:01:33;;;;;;;19.85;9.77;;;14.80;80.20;;;;;;5102932;27;20051;-81
2022/04/13 12:04:03;;;;;;;20.60;9.85;;;14.80;80.40;;;;;;5099291;27;20114;-81
2022/04/13 12:06:31;;;;;;;17.45;9.38;;;14.80;80.30;;;;;;5085161;28;20061;-81
2022/04/13 12:08:58;;;;;;;17.30;11.68;;;14.90;80.30;;;;;;5096288;28;20118;-80
2022/04/13 12:11:45;;;;;;;18.50;11.40;;;14.80;80.80;;;;;;5096457;28;20081;-81
2022/04/13 12:14:24;;;;;;;19.02;11.85;;;14.80;81.00;;;;;;5096129;28;20472;-80
2022/04/13 12:16:51;;;;;;;19.70;12.73;;;14.70;81.30;;;;;;5079334;28;20040;-80
2022/04/13 12:19:16;;;;;;;19.80;11.25;;;14.80;81.20;;;;;;5096533;28;20053;-80
2022/04/13 12:21:42;;;;;;;19.92;10.52;;;14.80;81.40;;;;;;5062953;28;20539;-80
2022/04/13 12:24:10;;;;;;;19.00;11.52;;;14.80;81.50;;;;;;5079253;28;20457;-80
2022/04/13 12:26:41;;;;;;;18.90;12.02;;;14.90;80.90;;;;;;5096206;28;20047;-80
2022/04/13 12:29:15;;;;;;;17.48;10.73;;;15.10;80.80;;;;;;5078160;28;20080;-80
2022/04/13 12:31:49;;;;;;;20.23;12.10;;;15.30;80.60;;;;;;5096024;28;20145;-80